sensor_id;sensor_type;location;lat;lon;timestamp;noise_LAeq;noise_LA_min;noise_LA_max;noise_LA01;noise_LA95
77135;Laerm;48586;50.122;18.972;2023-03-03T00:01:06;35.82;34.50;47.14;;
77135;Laerm;48586;50.122;18.972;2023-03-03T00:03:19;36.12;34.56;39.07;;
77135;Laerm;48586;50.122;18.972;2023-03-03T00:05:24;36.09;34.69;38.19;;
77135;Laerm;48586;50.122;18.972;2023-03-03T00:07:29;41.01;34.55;51.52;;
77135;Laerm;48586;50.122;18.972;2023-03-03T00:09:34;43.02;34.52;56.81;;
77135;Laerm;48586;50.122;18.972;2023-03-03T00:11:39;37.10;34.35;46.36;;
77135;Laerm;48586;50.122;18.972;2023-03-03T00:13:48;36.00;34.23;38.37;;
77135;Laerm;48586;50.122;18.972;2023-03-03T00:16:12;42.60;35.03;52.63;;
77135;Laerm;48586;50.122;18.972;2023-03-03T00:18:29;40.54;34.75;53.77;;
77135;Laerm;48586;50.122;18.972;2023-03-03T00:20:39;42.97;35.37;54.89;;
77135;Laerm;48586;50.122;18.972;2023-03-03T00:22:44;41.90;34.82;52.63;;
77135;Laerm;48586;50.122;18.972;2023-03-03T00:24:48;36.88;34.55;41.35;;
77135;Laerm;48586;50.122;18.972;2023-03-03T00:27:00;35.76;34.14;38.67;;
77135;Laerm;48586;50.122;18.972;2023-03-03T00:29:30;36.22;34.35;40.12;;
77135;Laerm;48586;50.122;18.972;2023-03-03T00:31:36;36.36;34.38;46.69;;
77135;Laerm;48586;50.122;18.972;2023-03-03T00:33:48;41.71;34.47;51.73;;
77135;Laerm;48586;50.122;18.972;2023-03-03T00:35:57;37.00;34.49;47.73;;
77135;Laerm;48586;50.122;18.972;2023-03-03T00:38:17;41.81;34.70;51.77;;
77135;Laerm;48586;50.122;18.972;2023-03-03T00:40:24;36.33;34.14;43.27;;
77135;Laerm;48586;50.122;18.972;2023-03-03T00:42:29;35.50;34.21;39.71;;
77135;Laerm;48586;50.122;18.972;2023-03-03T00:44:43;35.84;34.10;39.66;;
77135;Laerm;48586;50.122;18.972;2023-03-03T00:46:49;42.51;34.35;58.80;;
77135;Laerm;48586;50.122;18.972;2023-03-03T00:48:58;43.76;34.61;54.57;;
77135;Laerm;48586;50.122;18.972;2023-03-03T00:51:25;42.52;35.12;49.37;;
77135;Laerm;48586;50.122;18.972;2023-03-03T00:54:11;36.61;34.39;41.76;;
77135;Laerm;48586;50.122;18.972;2023-03-03T00:56:15;36.12;34.27;43.84;;
77135;Laerm;48586;50.122;18.972;2023-03-03T00:58:21;35.98;34.17;42.50;;
77135;Laerm;48586;50.122;18.972;2023-03-03T01:00:27;36.67;34.43;43.60;;
77135;Laerm;48586;50.122;18.972;2023-03-03T01:02:31;38.43;34.41;46.61;;
77135;Laerm;48586;50.122;18.972;2023-03-03T01:04:39;35.89;34.08;42.68;;
77135;Laerm;48586;50.122;18.972;2023-03-03T01:06:45;36.89;34.38;42.74;;
77135;Laerm;48586;50.122;18.972;2023-03-03T01:08:49;35.74;34.24;42.38;;
77135;Laerm;48586;50.122;18.972;2023-03-03T01:10:58;37.21;34.39;46.70;;
77135;Laerm;48586;50.122;18.972;2023-03-03T01:13:05;35.80;34.26;42.79;;
77135;Laerm;48586;50.122;18.972;2023-03-03T01:15:13;38.00;34.24;52.10;;
77135;Laerm;48586;50.122;18.972;2023-03-03T01:17:18;42.27;34.41;52.54;;
77135;Laerm;48586;50.122;18.972;2023-03-03T01:19:23;39.67;34.90;47.81;;
77135;Laerm;48586;50.122;18.972;2023-03-03T01:21:30;38.84;34.29;50.37;;
77135;Laerm;48586;50.122;18.972;2023-03-03T01:23:34;37.56;34.39;57.10;;
77135;Laerm;48586;50.122;18.972;2023-03-03T01:25:39;36.37;34.17;42.05;;
77135;Laerm;48586;50.122;18.972;2023-03-03T01:27:43;37.86;34.14;47.20;;
77135;Laerm;48586;50.122;18.972;2023-03-03T01:29:47;42.79;34.04;54.18;;
77135;Laerm;48586;50.122;18.972;2023-03-03T01:31:52;42.16;35.28;50.07;;
77135;Laerm;48586;50.122;18.972;2023-03-03T01:33:56;36.47;34.33;41.54;;
77135;Laerm;48586;50.122;18.972;2023-03-03T01:36:00;47.25;34.45;56.61;;
77135;Laerm;48586;50.122;18.972;2023-03-03T01:38:08;41.59;34.12;52.04;;
77135;Laerm;48586;50.122;18.972;2023-03-03T01:40:16;43.87;34.06;58.24;;
77135;Laerm;48586;50.122;18.972;2023-03-03T01:42:21;35.75;34.07;39.53;;
77135;Laerm;48586;50.122;18.972;2023-03-03T01:44:30;40.71;34.49;52.23;;
77135;Laerm;48586;50.122;18.972;2023-03-03T01:46:52;42.69;34.55;55.18;;
77135;Laerm;48586;50.122;18.972;2023-03-03T01:49:03;35.79;34.09;39.89;;
77135;Laerm;48586;50.122;18.972;2023-03-03T01:51:21;36.68;34.22;46.66;;
77135;Laerm;48586;50.122;18.972;2023-03-03T01:53:40;35.53;34.13;38.81;;
77135;Laerm;48586;50.122;18.972;2023-03-03T01:55:49;35.63;34.08;39.16;;
77135;Laerm;48586;50.122;18.972;2023-03-03T01:58:04;35.55;34.15;39.64;;
77135;Laerm;48586;50.122;18.972;2023-03-03T02:00:12;35.41;34.10;47.56;;
77135;Laerm;48586;50.122;18.972;2023-03-03T02:02:17;36.72;34.00;44.04;;
77135;Laerm;48586;50.122;18.972;2023-03-03T02:04:23;39.34;34.14;48.89;;
77135;Laerm;48586;50.122;18.972;2023-03-03T02:06:34;35.67;34.15;42.42;;
77135;Laerm;48586;50.122;18.972;2023-03-03T02:08:52;36.45;34.16;46.56;;
77135;Laerm;48586;50.122;18.972;2023-03-03T02:10:58;42.92;34.26;53.53;;
77135;Laerm;48586;50.122;18.972;2023-03-03T02:13:03;35.44;33.90;37.02;;
77135;Laerm;48586;50.122;18.972;2023-03-03T02:15:18;35.59;34.10;46.46;;
77135;Laerm;48586;50.122;18.972;2023-03-03T02:17:25;35.49;34.03;41.73;;
77135;Laerm;48586;50.122;18.972;2023-03-03T02:19:41;35.94;34.04;40.79;;
77135;Laerm;48586;50.122;18.972;2023-03-03T02:21:51;37.98;34.14;48.58;;
77135;Laerm;48586;50.122;18.972;2023-03-03T02:24:09;35.62;34.07;46.16;;
77135;Laerm;48586;50.122;18.972;2023-03-03T02:26:23;35.70;34.06;40.98;;
77135;Laerm;48586;50.122;18.972;2023-03-03T02:28:37;39.08;34.73;49.40;;
77135;Laerm;48586;50.122;18.972;2023-03-03T02:30:43;37.43;35.06;40.96;;
77135;Laerm;48586;50.122;18.972;2023-03-03T02:32:48;37.82;34.46;44.98;;
77135;Laerm;48586;50.122;18.972;2023-03-03T02:34:52;37.00;34.23;50.64;;
77135;Laerm;48586;50.122;18.972;2023-03-03T02:36:58;35.59;34.25;39.33;;
77135;Laerm;48586;50.122;18.972;2023-03-03T02:39:10;35.96;34.35;40.11;;
77135;Laerm;48586;50.122;18.972;2023-03-03T02:41:32;36.07;34.03;45.42;;
77135;Laerm;48586;50.122;18.972;2023-03-03T02:43:51;42.31;34.16;56.47;;
77135;Laerm;48586;50.122;18.972;2023-03-03T02:45:56;40.37;34.32;51.09;;
77135;Laerm;48586;50.122;18.972;2023-03-03T02:48:00;42.22;34.47;55.44;;
77135;Laerm;48586;50.122;18.972;2023-03-03T02:50:06;36.53;34.34;40.60;;
77135;Laerm;48586;50.122;18.972;2023-03-03T02:52:12;36.79;34.36;42.88;;
77135;Laerm;48586;50.122;18.972;2023-03-03T02:54:23;41.43;34.12;53.77;;
77135;Laerm;48586;50.122;18.972;2023-03-03T02:56:31;37.01;34.38;46.01;;
77135;Laerm;48586;50.122;18.972;2023-03-03T02:58:37;36.23;34.32;48.44;;
77135;Laerm;48586;50.122;18.972;2023-03-03T03:00:41;44.23;34.68;57.11;;
77135;Laerm;48586;50.122;18.972;2023-03-03T03:02:50;37.51;34.83;55.27;;
77135;Laerm;48586;50.122;18.972;2023-03-03T03:04:55;37.24;34.33;47.17;;
77135;Laerm;48586;50.122;18.972;2023-03-03T03:07:00;36.05;34.25;43.81;;
77135;Laerm;48586;50.122;18.972;2023-03-03T03:09:08;36.57;34.44;44.04;;
77135;Laerm;48586;50.122;18.972;2023-03-03T03:11:13;40.11;34.56;54.82;;
77135;Laerm;48586;50.122;18.972;2023-03-03T03:13:20;41.02;34.51;49.01;;
77135;Laerm;48586;50.122;18.972;2023-03-03T03:15:25;38.45;34.47;47.04;;
77135;Laerm;48586;50.122;18.972;2023-03-03T03:17:30;42.98;35.07;52.10;;
77135;Laerm;48586;50.122;18.972;2023-03-03T03:19:35;44.23;35.33;52.22;;
77135;Laerm;48586;50.122;18.972;2023-03-03T03:21:39;38.05;34.68;45.33;;
77135;Laerm;48586;50.122;18.972;2023-03-03T03:23:45;37.24;34.46;46.93;;
77135;Laerm;48586;50.122;18.972;2023-03-03T03:25:49;45.11;34.65;54.75;;
77135;Laerm;48586;50.122;18.972;2023-03-03T03:27:59;38.34;34.39;51.28;;
77135;Laerm;48586;50.122;18.972;2023-03-03T03:30:08;37.06;34.20;47.62;;
77135;Laerm;48586;50.122;18.972;2023-03-03T03:32:13;42.34;34.62;54.34;;
77135;Laerm;48586;50.122;18.972;2023-03-03T03:34:18;42.27;34.81;53.68;;
77135;Laerm;48586;50.122;18.972;2023-03-03T03:36:25;39.23;34.48;55.78;;
77135;Laerm;48586;50.122;18.972;2023-03-03T03:38:30;37.39;34.79;44.99;;
77135;Laerm;48586;50.122;18.972;2023-03-03T03:40:34;39.10;35.01;47.36;;
77135;Laerm;48586;50.122;18.972;2023-03-03T03:42:40;38.73;34.81;47.71;;
77135;Laerm;48586;50.122;18.972;2023-03-03T03:44:44;41.05;35.50;50.15;;
77135;Laerm;48586;50.122;18.972;2023-03-03T03:46:52;46.23;35.20;64.44;;
77135;Laerm;48586;50.122;18.972;2023-03-03T03:48:57;43.45;35.08;58.78;;
77135;Laerm;48586;50.122;18.972;2023-03-03T03:51:02;44.53;37.37;53.17;;
77135;Laerm;48586;50.122;18.972;2023-03-03T03:53:07;43.95;35.24;55.17;;
77135;Laerm;48586;50.122;18.972;2023-03-03T03:55:13;47.93;35.18;59.75;;
77135;Laerm;48586;50.122;18.972;2023-03-03T03:57:17;44.80;36.60;55.70;;
77135;Laerm;48586;50.122;18.972;2023-03-03T03:59:21;49.58;36.56;74.83;;
77135;Laerm;48586;50.122;18.972;2023-03-03T04:01:27;43.23;36.60;52.55;;
77135;Laerm;48586;50.122;18.972;2023-03-03T04:03:35;46.06;36.78;56.57;;
77135;Laerm;48586;50.122;18.972;2023-03-03T04:05:43;57.50;43.88;71.40;;
77135;Laerm;48586;50.122;18.972;2023-03-03T04:07:48;47.50;36.84;58.06;;
77135;Laerm;48586;50.122;18.972;2023-03-03T04:09:53;45.19;36.28;53.56;;
77135;Laerm;48586;50.122;18.972;2023-03-03T04:11:57;48.83;37.61;57.40;;
77135;Laerm;48586;50.122;18.972;2023-03-03T04:14:04;42.46;37.16;50.07;;
77135;Laerm;48586;50.122;18.972;2023-03-03T04:16:10;44.79;36.97;56.94;;
77135;Laerm;48586;50.122;18.972;2023-03-03T04:18:16;48.60;39.03;56.95;;
77135;Laerm;48586;50.122;18.972;2023-03-03T04:20:24;47.39;39.70;54.64;;
77135;Laerm;48586;50.122;18.972;2023-03-03T04:22:30;46.47;39.04;53.67;;
77135;Laerm;48586;50.122;18.972;2023-03-03T04:24:36;46.42;36.92;55.23;;
77135;Laerm;48586;50.122;18.972;2023-03-03T04:26:41;49.73;38.08;55.87;;
77135;Laerm;48586;50.122;18.972;2023-03-03T04:28:46;47.08;41.16;53.20;;
77135;Laerm;48586;50.122;18.972;2023-03-03T04:30:50;46.08;38.51;53.06;;
77135;Laerm;48586;50.122;18.972;2023-03-03T04:32:57;46.66;37.18;56.25;;
77135;Laerm;48586;50.122;18.972;2023-03-03T04:35:02;50.03;43.67;58.10;;
77135;Laerm;48586;50.122;18.972;2023-03-03T04:37:10;50.54;36.80;66.90;;
77135;Laerm;48586;50.122;18.972;2023-03-03T04:39:15;50.24;41.93;57.98;;
77135;Laerm;48586;50.122;18.972;2023-03-03T04:41:19;49.01;37.59;57.73;;
77135;Laerm;48586;50.122;18.972;2023-03-03T04:43:24;49.46;36.87;58.50;;
77135;Laerm;48586;50.122;18.972;2023-03-03T04:45:30;46.79;38.62;53.04;;
77135;Laerm;48586;50.122;18.972;2023-03-03T04:47:35;48.75;40.37;55.58;;
77135;Laerm;48586;50.122;18.972;2023-03-03T04:49:39;47.02;37.89;55.18;;
77135;Laerm;48586;50.122;18.972;2023-03-03T04:51:44;46.24;35.87;54.69;;
77135;Laerm;48586;50.122;18.972;2023-03-03T04:53:51;48.50;37.78;57.06;;
77135;Laerm;48586;50.122;18.972;2023-03-03T04:55:55;49.53;39.38;55.77;;
77135;Laerm;48586;50.122;18.972;2023-03-03T04:58:01;48.09;37.28;56.39;;
77135;Laerm;48586;50.122;18.972;2023-03-03T05:00:08;44.49;36.19;52.28;;
77135;Laerm;48586;50.122;18.972;2023-03-03T05:02:13;50.88;39.97;63.69;;
77135;Laerm;48586;50.122;18.972;2023-03-03T05:04:18;46.61;37.91;54.35;;
77135;Laerm;48586;50.122;18.972;2023-03-03T05:06:24;47.75;37.66;57.15;;
77135;Laerm;48586;50.122;18.972;2023-03-03T05:08:29;47.13;37.68;54.72;;
77135;Laerm;48586;50.122;18.972;2023-03-03T05:10:36;48.51;39.70;55.71;;
77135;Laerm;48586;50.122;18.972;2023-03-03T05:12:40;51.36;43.29;56.97;;
77135;Laerm;48586;50.122;18.972;2023-03-03T05:14:44;47.99;36.82;55.79;;
77135;Laerm;48586;50.122;18.972;2023-03-03T05:16:49;50.67;39.66;58.52;;
77135;Laerm;48586;50.122;18.972;2023-03-03T05:18:53;49.76;39.45;58.04;;
77135;Laerm;48586;50.122;18.972;2023-03-03T05:20:58;51.24;42.75;58.41;;
77135;Laerm;48586;50.122;18.972;2023-03-03T05:23:03;48.91;40.20;57.61;;
77135;Laerm;48586;50.122;18.972;2023-03-03T05:25:07;50.19;41.53;58.67;;
77135;Laerm;48586;50.122;18.972;2023-03-03T05:27:16;47.55;39.73;56.72;;
77135;Laerm;48586;50.122;18.972;2023-03-03T05:29:21;51.53;42.88;61.52;;
77135;Laerm;48586;50.122;18.972;2023-03-03T05:31:25;49.39;39.64;58.30;;
77135;Laerm;48586;50.122;18.972;2023-03-03T05:33:29;49.24;40.50;55.06;;
77135;Laerm;48586;50.122;18.972;2023-03-03T05:35:34;50.26;42.51;58.65;;
77135;Laerm;48586;50.122;18.972;2023-03-03T05:37:38;48.46;41.04;55.72;;
77135;Laerm;48586;50.122;18.972;2023-03-03T05:39:47;50.94;42.21;70.16;;
77135;Laerm;48586;50.122;18.972;2023-03-03T05:41:52;50.15;41.69;74.13;;
77135;Laerm;48586;50.122;18.972;2023-03-03T05:43:59;50.39;40.48;57.09;;
77135;Laerm;48586;50.122;18.972;2023-03-03T05:46:04;49.93;40.74;55.84;;
77135;Laerm;48586;50.122;18.972;2023-03-03T05:48:09;50.03;39.85;57.35;;
77135;Laerm;48586;50.122;18.972;2023-03-03T05:50:13;50.54;42.17;56.12;;
77135;Laerm;48586;50.122;18.972;2023-03-03T05:52:17;51.63;40.22;59.61;;
77135;Laerm;48586;50.122;18.972;2023-03-03T05:54:23;51.02;42.56;56.08;;
77135;Laerm;48586;50.122;18.972;2023-03-03T05:56:27;49.78;39.82;57.10;;
77135;Laerm;48586;50.122;18.972;2023-03-03T05:58:32;50.79;39.62;57.90;;
77135;Laerm;48586;50.122;18.972;2023-03-03T06:00:40;56.29;41.91;71.84;;
77135;Laerm;48586;50.122;18.972;2023-03-03T06:02:46;48.28;39.31;56.34;;
77135;Laerm;48586;50.122;18.972;2023-03-03T06:04:51;49.48;42.36;56.66;;
77135;Laerm;48586;50.122;18.972;2023-03-03T06:06:58;50.14;39.87;60.17;;
77135;Laerm;48586;50.122;18.972;2023-03-03T06:09:03;47.19;39.60;56.87;;
77135;Laerm;48586;50.122;18.972;2023-03-03T06:11:07;48.44;37.28;57.40;;
77135;Laerm;48586;50.122;18.972;2023-03-03T06:13:14;50.82;42.54;56.82;;
77135;Laerm;48586;50.122;18.972;2023-03-03T06:15:19;52.21;43.54;61.70;;
77135;Laerm;48586;50.122;18.972;2023-03-03T06:17:27;49.42;39.06;62.38;;
77135;Laerm;48586;50.122;18.972;2023-03-03T06:19:32;50.75;41.42;59.34;;
77135;Laerm;48586;50.122;18.972;2023-03-03T06:21:37;51.56;43.37;63.53;;
77135;Laerm;48586;50.122;18.972;2023-03-03T06:23:42;48.80;37.88;56.83;;
77135;Laerm;48586;50.122;18.972;2023-03-03T06:25:48;50.28;39.05;60.14;;
77135;Laerm;48586;50.122;18.972;2023-03-03T06:27:53;50.67;44.03;58.99;;
77135;Laerm;48586;50.122;18.972;2023-03-03T06:29:59;48.45;38.40;58.04;;
77135;Laerm;48586;50.122;18.972;2023-03-03T06:32:05;50.92;40.87;69.27;;
77135;Laerm;48586;50.122;18.972;2023-03-03T06:34:13;51.21;40.23;68.04;;
77135;Laerm;48586;50.122;18.972;2023-03-03T06:36:18;53.05;39.71;74.06;;
77135;Laerm;48586;50.122;18.972;2023-03-03T06:38:25;51.04;43.66;66.83;;
77135;Laerm;48586;50.122;18.972;2023-03-03T06:40:29;51.52;43.78;62.96;;
77135;Laerm;48586;50.122;18.972;2023-03-03T06:42:35;50.17;40.97;64.78;;
77135;Laerm;48586;50.122;18.972;2023-03-03T06:44:40;55.60;43.41;67.00;;
77135;Laerm;48586;50.122;18.972;2023-03-03T06:46:45;68.44;43.32;78.50;;
77135;Laerm;48586;50.122;18.972;2023-03-03T06:48:50;50.63;38.76;55.57;;
77135;Laerm;48586;50.122;18.972;2023-03-03T06:51:20;48.25;39.94;57.64;;
77135;Laerm;48586;50.122;18.972;2023-03-03T06:53:27;50.79;44.78;58.16;;
77135;Laerm;48586;50.122;18.972;2023-03-03T06:55:34;50.50;42.81;56.13;;
77135;Laerm;48586;50.122;18.972;2023-03-03T06:57:39;50.23;42.93;65.59;;
77135;Laerm;48586;50.122;18.972;2023-03-03T06:59:51;51.56;41.74;66.29;;
77135;Laerm;48586;50.122;18.972;2023-03-03T07:01:58;52.01;39.97;71.31;;
77135;Laerm;48586;50.122;18.972;2023-03-03T07:04:16;51.17;41.63;66.63;;
77135;Laerm;48586;50.122;18.972;2023-03-03T07:06:31;50.28;41.98;60.47;;
77135;Laerm;48586;50.122;18.972;2023-03-03T07:08:39;51.85;43.29;59.60;;
77135;Laerm;48586;50.122;18.972;2023-03-03T07:11:13;51.29;40.79;57.40;;
77135;Laerm;48586;50.122;18.972;2023-03-03T07:13:24;49.68;37.89;63.36;;
77135;Laerm;48586;50.122;18.972;2023-03-03T07:15:35;51.53;44.72;65.00;;
77135;Laerm;48586;50.122;18.972;2023-03-03T07:17:45;50.43;42.07;60.18;;
77135;Laerm;48586;50.122;18.972;2023-03-03T07:19:51;54.16;44.29;62.35;;
77135;Laerm;48586;50.122;18.972;2023-03-03T07:22:10;54.27;44.10;64.37;;
77135;Laerm;48586;50.122;18.972;2023-03-03T07:24:26;53.14;44.32;62.21;;
77135;Laerm;48586;50.122;18.972;2023-03-03T07:26:32;50.71;41.87;58.42;;
77135;Laerm;48586;50.122;18.972;2023-03-03T07:28:41;52.54;43.47;66.67;;
77135;Laerm;48586;50.122;18.972;2023-03-03T07:30:48;53.99;45.33;61.48;;
77135;Laerm;48586;50.122;18.972;2023-03-03T07:32:55;51.89;42.07;60.97;;
77135;Laerm;48586;50.122;18.972;2023-03-03T07:35:15;50.31;42.34;59.39;;
77135;Laerm;48586;50.122;18.972;2023-03-03T07:37:38;52.63;44.11;58.04;;
77135;Laerm;48586;50.122;18.972;2023-03-03T07:39:49;51.88;42.49;58.76;;
77135;Laerm;48586;50.122;18.972;2023-03-03T07:42:13;54.13;46.77;63.12;;
77135;Laerm;48586;50.122;18.972;2023-03-03T07:44:35;52.48;38.86;65.51;;
77135;Laerm;48586;50.122;18.972;2023-03-03T07:46:45;50.63;39.44;65.39;;
77135;Laerm;48586;50.122;18.972;2023-03-03T07:48:52;51.60;38.77;58.74;;
77135;Laerm;48586;50.122;18.972;2023-03-03T07:51:10;52.23;39.98;63.13;;
77135;Laerm;48586;50.122;18.972;2023-03-03T07:53:28;50.14;43.32;60.35;;
77135;Laerm;48586;50.122;18.972;2023-03-03T07:55:38;50.40;42.93;57.56;;
77135;Laerm;48586;50.122;18.972;2023-03-03T07:57:45;51.38;42.55;57.86;;
77135;Laerm;48586;50.122;18.972;2023-03-03T07:59:54;50.72;43.16;65.96;;
77135;Laerm;48586;50.122;18.972;2023-03-03T08:02:34;52.97;45.85;61.71;;
77135;Laerm;48586;50.122;18.972;2023-03-03T08:04:47;52.75;45.47;61.38;;
77135;Laerm;48586;50.122;18.972;2023-03-03T08:06:55;54.59;43.06;63.30;;
77135;Laerm;48586;50.122;18.972;2023-03-03T08:09:29;49.55;36.64;64.71;;
77135;Laerm;48586;50.122;18.972;2023-03-03T08:11:52;49.56;37.06;66.32;;
77135;Laerm;48586;50.122;18.972;2023-03-03T08:14:00;50.69;37.26;66.12;;
77135;Laerm;48586;50.122;18.972;2023-03-03T08:16:33;49.04;35.63;61.87;;
77135;Laerm;48586;50.122;18.972;2023-03-03T08:18:45;50.37;38.65;58.54;;
77135;Laerm;48586;50.122;18.972;2023-03-03T08:20:54;50.74;40.13;60.59;;
77135;Laerm;48586;50.122;18.972;2023-03-03T08:22:59;51.80;41.97;63.24;;
77135;Laerm;48586;50.122;18.972;2023-03-03T08:25:08;50.79;40.84;62.14;;
77135;Laerm;48586;50.122;18.972;2023-03-03T08:27:12;47.11;38.73;71.75;;
77135;Laerm;48586;50.122;18.972;2023-03-03T08:29:17;51.37;39.61;63.40;;
77135;Laerm;48586;50.122;18.972;2023-03-03T08:31:23;52.22;37.70;65.18;;
77135;Laerm;48586;50.122;18.972;2023-03-03T08:33:27;48.19;38.66;55.66;;
77135;Laerm;48586;50.122;18.972;2023-03-03T08:35:32;53.14;40.00;73.10;;
77135;Laerm;48586;50.122;18.972;2023-03-03T08:37:38;51.93;44.30;66.45;;
77135;Laerm;48586;50.122;18.972;2023-03-03T08:39:43;50.25;40.66;63.86;;
77135;Laerm;48586;50.122;18.972;2023-03-03T08:41:50;51.36;40.62;63.63;;
77135;Laerm;48586;50.122;18.972;2023-03-03T08:43:57;50.09;39.34;63.59;;
77135;Laerm;48586;50.122;18.972;2023-03-03T08:46:04;51.11;41.36;64.07;;
77135;Laerm;48586;50.122;18.972;2023-03-03T08:48:12;50.13;40.03;61.23;;
77135;Laerm;48586;50.122;18.972;2023-03-03T08:50:18;53.34;41.27;65.64;;
77135;Laerm;48586;50.122;18.972;2023-03-03T08:52:23;52.54;38.68;59.89;;
77135;Laerm;48586;50.122;18.972;2023-03-03T08:54:29;52.16;42.53;69.46;;
77135;Laerm;48586;50.122;18.972;2023-03-03T08:56:35;51.04;39.11;67.94;;
77135;Laerm;48586;50.122;18.972;2023-03-03T08:58:43;50.99;42.09;59.43;;
77135;Laerm;48586;50.122;18.972;2023-03-03T09:00:49;50.53;42.98;63.29;;
77135;Laerm;48586;50.122;18.972;2023-03-03T09:02:55;51.90;40.61;65.18;;
77135;Laerm;48586;50.122;18.972;2023-03-03T09:04:59;49.24;42.86;63.08;;
77135;Laerm;48586;50.122;18.972;2023-03-03T09:07:05;51.06;41.24;60.29;;
77135;Laerm;48586;50.122;18.972;2023-03-03T09:09:11;49.05;41.26;56.56;;
77135;Laerm;48586;50.122;18.972;2023-03-03T09:11:23;49.55;38.68;58.21;;
77135;Laerm;48586;50.122;18.972;2023-03-03T09:13:29;50.94;38.50;59.21;;
77135;Laerm;48586;50.122;18.972;2023-03-03T09:15:39;49.43;40.99;57.08;;
77135;Laerm;48586;50.122;18.972;2023-03-03T09:17:45;48.13;36.98;55.33;;
77135;Laerm;48586;50.122;18.972;2023-03-03T09:19:50;50.22;39.70;68.39;;
77135;Laerm;48586;50.122;18.972;2023-03-03T09:22:10;50.67;39.57;59.00;;
77135;Laerm;48586;50.122;18.972;2023-03-03T09:24:26;50.55;39.05;57.25;;
77135;Laerm;48586;50.122;18.972;2023-03-03T09:26:46;50.40;42.62;56.66;;
77135;Laerm;48586;50.122;18.972;2023-03-03T09:29:10;52.34;38.82;63.23;;
77135;Laerm;48586;50.122;18.972;2023-03-03T09:31:29;54.00;43.82;62.81;;
77135;Laerm;48586;50.122;18.972;2023-03-03T09:33:43;53.71;43.13;66.23;;
77135;Laerm;48586;50.122;18.972;2023-03-03T09:36:00;51.48;42.48;59.23;;
77135;Laerm;48586;50.122;18.972;2023-03-03T09:38:25;51.35;44.19;56.96;;
77135;Laerm;48586;50.122;18.972;2023-03-03T09:41:00;48.74;37.43;55.55;;
77135;Laerm;48586;50.122;18.972;2023-03-03T09:43:21;48.99;41.89;57.00;;
77135;Laerm;48586;50.122;18.972;2023-03-03T09:45:53;48.51;37.55;59.56;;
77135;Laerm;48586;50.122;18.972;2023-03-03T09:48:43;51.83;43.79;71.18;;
77135;Laerm;48586;50.122;18.972;2023-03-03T09:55:05;52.74;40.87;63.99;;
77135;Laerm;48586;50.122;18.972;2023-03-03T09:57:25;51.59;40.42;66.01;;
77135;Laerm;48586;50.122;18.972;2023-03-03T09:59:56;52.81;42.71;72.31;;
77135;Laerm;48586;50.122;18.972;2023-03-03T10:02:36;47.66;39.04;66.84;;
77135;Laerm;48586;50.122;18.972;2023-03-03T10:05:16;49.87;37.28;61.84;;
77135;Laerm;48586;50.122;18.972;2023-03-03T10:07:41;50.49;41.72;59.03;;
77135;Laerm;48586;50.122;18.972;2023-03-03T10:10:20;51.69;43.24;59.05;;
77135;Laerm;48586;50.122;18.972;2023-03-03T10:12:38;53.07;40.83;65.00;;
77135;Laerm;48586;50.122;18.972;2023-03-03T10:15:20;51.64;41.16;60.04;;
77135;Laerm;48586;50.122;18.972;2023-03-03T10:17:47;52.23;41.66;58.87;;
77135;Laerm;48586;50.122;18.972;2023-03-03T10:20:22;51.23;39.91;58.61;;
77135;Laerm;48586;50.122;18.972;2023-03-03T10:22:46;52.21;38.19;70.09;;
77135;Laerm;48586;50.122;18.972;2023-03-03T10:25:20;53.55;42.82;69.41;;
77135;Laerm;48586;50.122;18.972;2023-03-03T10:27:57;52.05;37.71;64.30;;
77135;Laerm;48586;50.122;18.972;2023-03-03T10:30:22;53.17;37.37;66.54;;
77135;Laerm;48586;50.122;18.972;2023-03-03T10:32:46;55.13;39.60;67.32;;
77135;Laerm;48586;50.122;18.972;2023-03-03T10:35:24;52.83;38.69;68.67;;
77135;Laerm;48586;50.122;18.972;2023-03-03T10:41:55;52.95;40.26;73.55;;
77135;Laerm;48586;50.122;18.972;2023-03-03T10:44:30;49.83;40.56;58.95;;
77135;Laerm;48586;50.122;18.972;2023-03-03T10:47:11;49.13;39.06;57.60;;
77135;Laerm;48586;50.122;18.972;2023-03-03T10:49:41;54.44;44.31;63.49;;
77135;Laerm;48586;50.122;18.972;2023-03-03T10:52:15;51.56;41.38;66.11;;
77135;Laerm;48586;50.122;18.972;2023-03-03T10:54:48;50.62;37.47;57.30;;
77135;Laerm;48586;50.122;18.972;2023-03-03T10:57:07;52.02;39.25;64.79;;
77135;Laerm;48586;50.122;18.972;2023-03-03T10:59:40;51.31;44.11;65.45;;
77135;Laerm;48586;50.122;18.972;2023-03-03T11:01:57;68.97;40.54;80.16;;
77135;Laerm;48586;50.122;18.972;2023-03-03T11:04:27;49.65;41.42;57.15;;
77135;Laerm;48586;50.122;18.972;2023-03-03T11:10:36;51.87;38.81;61.28;;
77135;Laerm;48586;50.122;18.972;2023-03-03T11:13:02;52.85;38.62;64.66;;
77135;Laerm;48586;50.122;18.972;2023-03-03T11:15:39;52.04;40.40;67.89;;
77135;Laerm;48586;50.122;18.972;2023-03-03T11:18:09;49.57;40.30;62.01;;
77135;Laerm;48586;50.122;18.972;2023-03-03T11:20:36;49.92;38.78;57.28;;
77135;Laerm;48586;50.122;18.972;2023-03-03T11:22:56;49.45;40.68;61.18;;
77135;Laerm;48586;50.122;18.972;2023-03-03T11:25:26;50.15;43.60;56.89;;
77135;Laerm;48586;50.122;18.972;2023-03-03T11:28:10;51.89;43.44;63.06;;
77135;Laerm;48586;50.122;18.972;2023-03-03T11:30:42;51.12;40.81;60.78;;
77135;Laerm;48586;50.122;18.972;2023-03-03T11:33:01;52.90;43.91;64.42;;
77135;Laerm;48586;50.122;18.972;2023-03-03T11:35:23;52.12;44.17;62.89;;
77135;Laerm;48586;50.122;18.972;2023-03-03T11:37:44;52.85;41.07;64.11;;
77135;Laerm;48586;50.122;18.972;2023-03-03T11:39:56;49.16;40.54;56.12;;
77135;Laerm;48586;50.122;18.972;2023-03-03T11:42:24;50.97;39.66;57.18;;
77135;Laerm;48586;50.122;18.972;2023-03-03T11:44:40;50.06;38.98;63.48;;
77135;Laerm;48586;50.122;18.972;2023-03-03T11:46:54;49.36;41.51;56.69;;
77135;Laerm;48586;50.122;18.972;2023-03-03T11:49:08;47.94;39.73;54.94;;
77135;Laerm;48586;50.122;18.972;2023-03-03T11:51:43;50.49;40.09;60.48;;
77135;Laerm;48586;50.122;18.972;2023-03-03T11:54:00;52.07;42.45;62.51;;
77135;Laerm;48586;50.122;18.972;2023-03-03T11:56:21;52.04;41.22;57.80;;
77135;Laerm;48586;50.122;18.972;2023-03-03T11:58:44;52.25;43.27;62.57;;
77135;Laerm;48586;50.122;18.972;2023-03-03T12:00:56;50.16;39.21;61.48;;
77135;Laerm;48586;50.122;18.972;2023-03-03T12:03:28;50.95;40.30;59.00;;
77135;Laerm;48586;50.122;18.972;2023-03-03T12:06:13;49.59;41.33;58.14;;
77135;Laerm;48586;50.122;18.972;2023-03-03T12:11:26;49.98;39.89;58.39;;
77135;Laerm;48586;50.122;18.972;2023-03-03T12:13:50;49.67;39.14;56.24;;
77135;Laerm;48586;50.122;18.972;2023-03-03T12:20:07;51.09;42.27;66.63;;
77135;Laerm;48586;50.122;18.972;2023-03-03T12:22:30;51.22;42.74;57.58;;
77135;Laerm;48586;50.122;18.972;2023-03-03T12:27:28;52.87;43.61;65.76;;
77135;Laerm;48586;50.122;18.972;2023-03-03T12:29:54;50.66;39.97;62.61;;